WAT4903 EDDS-EGKK
Flight info
| Callsign | WAT4903 |
|---|---|
| Flight time | N/A |
| Altitude | 34000 |
| Route | VESID2H/07 VESID Y127 BANIM L608 LIRSU DCT SPI DCT DENUT L610 TEBRA |
| Aircraft | A320/M-SDE3FGHIRWY/LB1 |
Departure
| Time | 2026-04-30 22:33 |
|---|---|
| Airport | Stuttgart Airport (EDDS) |
Arrival
| Time | N/A |
|---|---|
| Airport | London Gatwick Airport (EGKK) |
| Time | Latitude | Longitude | Altitude | Speed | Heading |
|---|---|---|---|---|---|
| 2026-04-30 22:05 | 48.68968 | 9.19778 | 1294 ft | 0 kts | 343° |
| 2026-04-30 22:26 | 48.68954 | 9.19784 | 1293 ft | 4 kts | 345° |
| 2026-04-30 22:26 | 48.68928 | 9.19793 | 1293 ft | 4 kts | 352° |
| 2026-04-30 22:27 | 48.68901 | 9.19796 | 1294 ft | 4 kts | 10° |
| 2026-04-30 22:27 | 48.68881 | 9.19782 | 1294 ft | 2 kts | 61° |
| 2026-04-30 22:27 | 48.68880 | 9.19780 | 1294 ft | 0 kts | 62° |
| 2026-04-30 22:29 | 48.68890 | 9.19827 | 1293 ft | 8 kts | 77° |
| 2026-04-30 22:29 | 48.68846 | 9.19898 | 1292 ft | 13 kts | 159° |
| 2026-04-30 22:30 | 48.68671 | 9.19994 | 1290 ft | 0 kts | 163° |
| 2026-04-30 22:32 | 48.68594 | 9.20118 | 1287 ft | 16 kts | 76° |
| 2026-04-30 22:32 | 48.68791 | 9.21167 | 1266 ft | 113 kts | 74° |
| 2026-04-30 22:33 | 48.69691 | 9.25919 | 2697 ft | 164 kts | 78° |
| 2026-04-30 22:33 | 48.70343 | 9.29467 | 3607 ft | 197 kts | 79° |
| 2026-04-30 22:34 | 48.71833 | 9.36320 | 5237 ft | 253 kts | 58° |
| 2026-04-30 22:35 | 48.75008 | 9.38700 | 6946 ft | 277 kts | 357° |
| 2026-04-30 22:36 | 48.81253 | 9.31348 | 10321 ft | 299 kts | 319° |
| 2026-04-30 22:36 | 48.83503 | 9.28019 | 10911 ft | 326 kts | 319° |
| 2026-04-30 22:37 | 49.05327 | 8.96001 | 18589 ft | 382 kts | 320° |
| 2026-04-30 22:37 | 49.13099 | 8.84542 | 20619 ft | 393 kts | 324° |
| 2026-04-30 22:37 | 49.33865 | 8.81700 | 24395 ft | 391 kts | 8° |
| 2026-04-30 22:38 | 49.56032 | 8.83668 | 27420 ft | 417 kts | 351° |
| 2026-04-30 22:38 | 49.73784 | 8.58014 | 29918 ft | 453 kts | 322° |
| 2026-04-30 22:39 | 49.82982 | 8.44404 | 30972 ft | 465 kts | 313° |
| 2026-04-30 22:39 | 49.94116 | 7.97933 | 34333 ft | 467 kts | 289° |
| 2026-04-30 22:40 | 49.96943 | 7.65560 | 34352 ft | 465 kts | 279° |
| 2026-04-30 22:41 | 49.99660 | 7.30242 | 34331 ft | 467 kts | 279° |
| 2026-04-30 22:43 | 50.12911 | 6.61746 | 34302 ft | 460 kts | 302° |
| 2026-04-30 22:44 | 50.39356 | 5.93310 | 34284 ft | 460 kts | 304° |
| 2026-04-30 22:45 | 50.78855 | 4.89535 | 34284 ft | 462 kts | 303° |
| 2026-04-30 22:47 | 51.17473 | 3.83105 | 34280 ft | 464 kts | 301° |
| 2026-04-30 22:47 | 51.26390 | 3.44694 | 34266 ft | 467 kts | 283° |
| 2026-04-30 22:48 | 51.31605 | 3.04176 | 33596 ft | 456 kts | 279° |
| 2026-04-30 22:49 | 51.35169 | 2.75730 | 29776 ft | 452 kts | 279° |
| 2026-04-30 22:49 | 51.41379 | 2.24743 | 23982 ft | 411 kts | 278° |
| 2026-04-30 22:50 | 51.48005 | 1.57333 | 16583 ft | 361 kts | 250° |
| 2026-04-30 22:51 | 51.38326 | 1.31497 | 13647 ft | 333 kts | 213° |
| 2026-04-30 22:51 | 51.23427 | 1.13811 | 11636 ft | 332 kts | 213° |
| 2026-04-30 22:52 | 51.16003 | 1.05122 | 10730 ft | 328 kts | 212° |
| 2026-04-30 22:52 | 51.09247 | 0.97244 | 9939 ft | 299 kts | 212° |
| 2026-04-30 22:53 | 51.02839 | 0.83347 | 9063 ft | 300 kts | 242° |
| 2026-04-30 22:53 | 50.95737 | 0.59776 | 7492 ft | 292 kts | 242° |
| 2026-04-30 22:53 | 50.92247 | 0.48202 | 6452 ft | 277 kts | 243° |
| 2026-04-30 22:54 | 50.95571 | 0.24008 | 4886 ft | 296 kts | 311° |
| 2026-04-30 22:55 | 51.01858 | 0.08868 | 3985 ft | 289 kts | 276° |
| 2026-04-30 22:55 | 51.02516 | -0.03876 | 3674 ft | 291 kts | 272° |
| 2026-04-30 22:56 | 51.03607 | -0.25107 | 3214 ft | 292 kts | 271° |
| 2026-04-30 22:56 | 51.04837 | -0.50550 | 3005 ft | 253 kts | 271° |
| 2026-04-30 22:57 | 51.08654 | -0.54992 | 2989 ft | 220 kts | 34° |
| 2026-04-30 22:57 | 51.10272 | -0.51568 | 3000 ft | 192 kts | 83° |
| 2026-04-30 22:58 | 51.10821 | -0.47653 | 2998 ft | 174 kts | 84° |
| 2026-04-30 22:59 | 51.12236 | -0.37568 | 2361 ft | 156 kts | 84° |
| 2026-04-30 22:59 | 51.12906 | -0.32785 | 1745 ft | 137 kts | 84° |